weather station
Area: 4758 km2
The highest point: Sněžka (1603 m.s.l.)
Total stations: 31
Stations online: 28
Stations offline: 3
Current weather
13°C

Meteorological map - weather stations in Královéhradecký

. The meteorological maps show weather information from WARIO weather stations

Weather stations Královéhradecký

 UpdatesNameStatusTemperatureHumidityWind speedWind direction
1.10.2022 13:46Jičín13.6 °C67.3 %2.2 m/s NW
1.10.2022 13:45Božanov12.3 °C82.3 %0.0 m/s W
1.10.2022 13:45Červený Kostelec - Bohdašín9.8 °C80.5 %3.2 m/s S
1.10.2022 13:46Červený Kostelec - Stolín12.3 °C84.9 %0.0 m/s SW
1.10.2022 13:46Brzice11.5 °C92.0 %2.8 m/s S
1.10.2022 13:46Dolany13.3 °C73.1 %2.5 m/s S
1.10.2022 13:45Hradec Králové - Plotiště nad Labem14.5 °C81.9 %1.6 m/s W
1.10.2022 13:29Vrchlabí11.7 °C75.7 %0.9 m/s NW
1.10.2022 13:46Horní Lánov10.9 °C78.5 %2.8 m/s E
1.10.2022 13:45Černilov15.2 °C77.0 %0.0 m/s SW
1.10.2022 13:46Hronov11.9 °C77.5 %2.3 m/s W
1.10.2022 13:46Jaroměř-Josefov14.2 °C64.4 %1.0 m/s S
1.10.2022 13:45Jičín13.5 °C61.2 %2.3 m/s SW
1.10.2022 13:46Kacákova Lhota14.6 °C65.0 %3.1 m/s S
1.10.2022 13:46Červený Kostelec - Kemp Brodský11.8 °C74.4 %1.1 m/s SW
1.10.2022 13:46Dvůr Králové nad Labem12.7 °C73.3 %4.7 m/s SW
1.10.2022 13:46Vysokov11.2 °C85.8 %4.5 m/s W
1.10.2022 13:46Hradec Králové15.8 °C54.1 %0.8 m/s W
1.10.2022 13:46Pecka - Horní Javoří14.1 °C71.1 %0.8 m/s SE
1.10.2022 13:46Hajnice11.0 °C77.4 %2.0 m/s SW
1.10.2022 13:46Janatov14.4 °C63.6 %1.7 m/s S
1.10.2022 13:46Hradec Králové - Roudnička14.4 °C70.2 %2.8 m/s SW
29.9.2022 05:16Pohoří4.5 °C100.0 %0.6 m/s N
1.10.2022 13:46Zábřezí - Řečice11.8 °C71.4 %2.3 m/s S
4.9.2022 21:24Skuřina16.5 °C82.2 %1.5 m/s S
1.10.2022 13:46Sobotka12.8 °C100.0 %2.1 m/s SE
1.10.2022 13:46Třebihošť11.2 °C83.8 %3.9 m/s S
1.10.2022 13:46Velká Jesenice13.2 °C68.1 %2.0 m/s S
1.10.2022 13:46Vrchlabí12.6 °C78.8 %0.0 m/s NW
1.10.2022 13:46Vrchovnice13.4 °C63.0 %2.4 m/s SW
1.10.2022 13:46Vysoká nad Labem14.7 °C63.8 %2.6 m/s SW
Email notifications
Enter your email address to subscribe to notifications about news at warioweather.com. Your email address will not be used for any purpose other than sending these emails and will not be provided to any third party. The subscription can be ended at any time.
All data are only indicative. The portal administrator has no responsibility for potentially incorrect data and related consequences. Publishing or further sharing of content from www.warioweather.com is only allowed with written consent from WANET s.r.o.